sensor_id;sensor_type;location;lat;lon;timestamp;P1;durP1;ratioP1;P2;durP2;ratioP2
19905;SDS011;10115;50.906;4.438;2023-05-18T00:00:07;5.83;;;5.50;;
19905;SDS011;10115;50.906;4.438;2023-05-18T00:02:38;6.37;;;5.80;;
19905;SDS011;10115;50.906;4.438;2023-05-18T00:05:04;6.63;;;6.23;;
19905;SDS011;10115;50.906;4.438;2023-05-18T00:07:31;6.33;;;5.93;;
19905;SDS011;10115;50.906;4.438;2023-05-18T00:09:58;5.97;;;5.67;;
19905;SDS011;10115;50.906;4.438;2023-05-18T00:12:25;6.80;;;6.30;;
19905;SDS011;10115;50.906;4.438;2023-05-18T00:14:53;8.73;;;6.17;;
19905;SDS011;10115;50.906;4.438;2023-05-18T00:17:18;5.90;;;5.57;;
19905;SDS011;10115;50.906;4.438;2023-05-18T00:19:45;5.17;;;4.97;;
19905;SDS011;10115;50.906;4.438;2023-05-18T00:22:11;7.13;;;6.53;;
19905;SDS011;10115;50.906;4.438;2023-05-18T00:24:42;6.60;;;6.00;;
19905;SDS011;10115;50.906;4.438;2023-05-18T00:27:11;8.33;;;5.60;;
19905;SDS011;10115;50.906;4.438;2023-05-18T00:29:38;6.23;;;5.63;;
19905;SDS011;10115;50.906;4.438;2023-05-18T00:32:04;6.13;;;5.57;;
19905;SDS011;10115;50.906;4.438;2023-05-18T00:34:30;6.90;;;6.30;;
19905;SDS011;10115;50.906;4.438;2023-05-18T00:36:56;11.13;;;6.97;;
19905;SDS011;10115;50.906;4.438;2023-05-18T00:39:21;7.27;;;6.10;;
19905;SDS011;10115;50.906;4.438;2023-05-18T00:41:47;6.20;;;5.70;;
19905;SDS011;10115;50.906;4.438;2023-05-18T00:44:13;6.67;;;6.37;;
19905;SDS011;10115;50.906;4.438;2023-05-18T00:46:39;6.40;;;5.80;;
19905;SDS011;10115;50.906;4.438;2023-05-18T00:49:05;7.60;;;5.30;;
19905;SDS011;10115;50.906;4.438;2023-05-18T00:51:31;5.30;;;5.10;;
19905;SDS011;10115;50.906;4.438;2023-05-18T00:53:58;7.53;;;6.83;;
19905;SDS011;10115;50.906;4.438;2023-05-18T00:56:25;8.57;;;5.80;;
19905;SDS011;10115;50.906;4.438;2023-05-18T00:58:52;13.23;;;6.13;;
19905;SDS011;10115;50.906;4.438;2023-05-18T01:01:21;8.47;;;6.20;;
19905;SDS011;10115;50.906;4.438;2023-05-18T01:03:52;7.17;;;5.90;;
19905;SDS011;10115;50.906;4.438;2023-05-18T01:06:29;6.33;;;5.70;;
19905;SDS011;10115;50.906;4.438;2023-05-18T01:09:02;7.20;;;6.60;;
19905;SDS011;10115;50.906;4.438;2023-05-18T01:14:24;6.67;;;6.07;;
19905;SDS011;10115;50.906;4.438;2023-05-18T01:16:54;5.60;;;5.30;;
19905;SDS011;10115;50.906;4.438;2023-05-18T01:24:47;6.27;;;5.87;;
19905;SDS011;10115;50.906;4.438;2023-05-18T01:27:17;6.47;;;5.80;;
19905;SDS011;10115;50.906;4.438;2023-05-18T01:29:48;6.00;;;5.67;;
19905;SDS011;10115;50.906;4.438;2023-05-18T01:32:18;6.70;;;6.10;;
19905;SDS011;10115;50.906;4.438;2023-05-18T01:34:45;7.30;;;6.10;;
19905;SDS011;10115;50.906;4.438;2023-05-18T01:37:11;6.10;;;5.70;;
19905;SDS011;10115;50.906;4.438;2023-05-18T01:39:38;6.00;;;5.70;;
19905;SDS011;10115;50.906;4.438;2023-05-18T01:42:10;6.77;;;6.27;;
19905;SDS011;10115;50.906;4.438;2023-05-18T01:44:47;5.60;;;5.40;;
19905;SDS011;10115;50.906;4.438;2023-05-18T01:47:17;6.40;;;6.00;;
19905;SDS011;10115;50.906;4.438;2023-05-18T01:52:28;7.30;;;5.83;;
19905;SDS011;10115;50.906;4.438;2023-05-18T01:54:55;8.60;;;6.03;;
19905;SDS011;10115;50.906;4.438;2023-05-18T01:57:26;6.97;;;6.37;;
19905;SDS011;10115;50.906;4.438;2023-05-18T01:59:53;13.63;;;6.20;;
19905;SDS011;10115;50.906;4.438;2023-05-18T02:02:19;6.50;;;6.10;;
19905;SDS011;10115;50.906;4.438;2023-05-18T02:04:45;6.67;;;6.03;;
19905;SDS011;10115;50.906;4.438;2023-05-18T02:07:11;7.70;;;5.77;;
19905;SDS011;10115;50.906;4.438;2023-05-18T02:09:36;9.93;;;6.20;;
19905;SDS011;10115;50.906;4.438;2023-05-18T02:12:02;7.47;;;6.57;;
19905;SDS011;10115;50.906;4.438;2023-05-18T02:14:28;6.27;;;5.67;;
19905;SDS011;10115;50.906;4.438;2023-05-18T02:16:54;6.53;;;6.03;;
19905;SDS011;10115;50.906;4.438;2023-05-18T02:19:21;6.30;;;5.90;;
19905;SDS011;10115;50.906;4.438;2023-05-18T02:21:47;7.83;;;7.23;;
19905;SDS011;10115;50.906;4.438;2023-05-18T02:24:12;7.27;;;5.77;;
19905;SDS011;10115;50.906;4.438;2023-05-18T02:26:38;6.63;;;5.87;;
19905;SDS011;10115;50.906;4.438;2023-05-18T02:29:04;6.20;;;5.80;;
19905;SDS011;10115;50.906;4.438;2023-05-18T02:31:30;7.13;;;6.43;;
19905;SDS011;10115;50.906;4.438;2023-05-18T02:33:56;6.47;;;6.07;;
19905;SDS011;10115;50.906;4.438;2023-05-18T02:36:22;6.40;;;6.07;;
19905;SDS011;10115;50.906;4.438;2023-05-18T02:38:48;6.30;;;5.83;;
19905;SDS011;10115;50.906;4.438;2023-05-18T02:41:13;5.80;;;5.50;;
19905;SDS011;10115;50.906;4.438;2023-05-18T02:43:39;6.30;;;5.90;;
19905;SDS011;10115;50.906;4.438;2023-05-18T02:46:05;7.77;;;5.63;;
19905;SDS011;10115;50.906;4.438;2023-05-18T02:48:31;6.60;;;6.20;;
19905;SDS011;10115;50.906;4.438;2023-05-18T02:50:56;7.40;;;6.80;;
19905;SDS011;10115;50.906;4.438;2023-05-18T02:53:23;6.47;;;5.73;;
19905;SDS011;10115;50.906;4.438;2023-05-18T02:55:52;6.57;;;6.10;;
19905;SDS011;10115;50.906;4.438;2023-05-18T02:58:21;10.70;;;7.63;;
19905;SDS011;10115;50.906;4.438;2023-05-18T03:00:49;6.10;;;5.70;;
19905;SDS011;10115;50.906;4.438;2023-05-18T03:03:17;8.23;;;7.03;;
19905;SDS011;10115;50.906;4.438;2023-05-18T03:05:43;6.23;;;5.83;;
19905;SDS011;10115;50.906;4.438;2023-05-18T03:08:08;6.73;;;6.20;;
19905;SDS011;10115;50.906;4.438;2023-05-18T03:10:34;8.77;;;6.40;;
19905;SDS011;10115;50.906;4.438;2023-05-18T03:13:01;6.57;;;6.17;;
19905;SDS011;10115;50.906;4.438;2023-05-18T03:15:27;9.67;;;6.63;;
19905;SDS011;10115;50.906;4.438;2023-05-18T03:17:55;6.00;;;5.70;;
19905;SDS011;10115;50.906;4.438;2023-05-18T03:20:23;7.00;;;6.57;;
19905;SDS011;10115;50.906;4.438;2023-05-18T03:22:50;6.50;;;6.20;;
19905;SDS011;10115;50.906;4.438;2023-05-18T03:25:16;9.03;;;6.90;;
19905;SDS011;10115;50.906;4.438;2023-05-18T03:27:42;7.67;;;6.87;;
19905;SDS011;10115;50.906;4.438;2023-05-18T03:30:07;6.53;;;6.23;;
19905;SDS011;10115;50.906;4.438;2023-05-18T03:32:33;6.97;;;6.40;;
19905;SDS011;10115;50.906;4.438;2023-05-18T03:35:01;7.13;;;6.50;;
19905;SDS011;10115;50.906;4.438;2023-05-18T03:37:27;11.47;;;6.63;;
19905;SDS011;10115;50.906;4.438;2023-05-18T03:39:53;7.23;;;6.07;;
19905;SDS011;10115;50.906;4.438;2023-05-18T03:42:19;6.83;;;6.43;;
19905;SDS011;10115;50.906;4.438;2023-05-18T03:44:45;6.20;;;5.90;;
19905;SDS011;10115;50.906;4.438;2023-05-18T03:47:11;6.60;;;6.07;;
19905;SDS011;10115;50.906;4.438;2023-05-18T03:49:36;6.10;;;5.80;;
19905;SDS011;10115;50.906;4.438;2023-05-18T03:52:02;7.23;;;6.73;;
19905;SDS011;10115;50.906;4.438;2023-05-18T03:54:28;6.50;;;6.10;;
19905;SDS011;10115;50.906;4.438;2023-05-18T03:56:54;6.40;;;6.03;;
19905;SDS011;10115;50.906;4.438;2023-05-18T03:59:20;8.77;;;6.30;;
19905;SDS011;10115;50.906;4.438;2023-05-18T04:01:45;7.80;;;7.07;;
19905;SDS011;10115;50.906;4.438;2023-05-18T04:04:11;6.80;;;6.30;;
19905;SDS011;10115;50.906;4.438;2023-05-18T04:06:42;6.43;;;5.97;;
19905;SDS011;10115;50.906;4.438;2023-05-18T04:09:10;9.30;;;7.50;;
19905;SDS011;10115;50.906;4.438;2023-05-18T04:11:38;8.60;;;6.60;;
19905;SDS011;10115;50.906;4.438;2023-05-18T04:14:04;9.47;;;6.37;;
19905;SDS011;10115;50.906;4.438;2023-05-18T04:16:32;7.40;;;6.90;;
19905;SDS011;10115;50.906;4.438;2023-05-18T04:18:58;8.20;;;6.80;;
19905;SDS011;10115;50.906;4.438;2023-05-18T04:21:24;7.13;;;6.67;;
19905;SDS011;10115;50.906;4.438;2023-05-18T04:23:50;8.67;;;6.93;;
19905;SDS011;10115;50.906;4.438;2023-05-18T04:26:15;7.47;;;6.97;;
19905;SDS011;10115;50.906;4.438;2023-05-18T04:28:44;11.20;;;5.80;;
19905;SDS011;10115;50.906;4.438;2023-05-18T04:31:11;12.53;;;6.63;;
19905;SDS011;10115;50.906;4.438;2023-05-18T04:33:38;6.40;;;5.80;;
19905;SDS011;10115;50.906;4.438;2023-05-18T04:36:05;6.63;;;6.23;;
19905;SDS011;10115;50.906;4.438;2023-05-18T04:38:34;7.37;;;6.63;;
19905;SDS011;10115;50.906;4.438;2023-05-18T04:41:00;9.13;;;6.43;;
19905;SDS011;10115;50.906;4.438;2023-05-18T04:43:29;7.00;;;6.60;;
19905;SDS011;10115;50.906;4.438;2023-05-18T04:45:55;7.27;;;6.67;;
19905;SDS011;10115;50.906;4.438;2023-05-18T04:48:23;7.80;;;6.80;;
19905;SDS011;10115;50.906;4.438;2023-05-18T04:50:50;7.80;;;7.30;;
19905;SDS011;10115;50.906;4.438;2023-05-18T04:53:18;10.00;;;7.00;;
19905;SDS011;10115;50.906;4.438;2023-05-18T04:55:45;7.30;;;6.60;;
19905;SDS011;10115;50.906;4.438;2023-05-18T04:58:14;9.47;;;6.30;;
19905;SDS011;10115;50.906;4.438;2023-05-18T05:00:40;14.67;;;6.73;;
19905;SDS011;10115;50.906;4.438;2023-05-18T05:03:07;6.83;;;6.43;;
19905;SDS011;10115;50.906;4.438;2023-05-18T05:05:33;8.57;;;6.80;;
19905;SDS011;10115;50.906;4.438;2023-05-18T05:07:59;6.47;;;6.07;;
19905;SDS011;10115;50.906;4.438;2023-05-18T05:10:25;6.17;;;5.77;;
19905;SDS011;10115;50.906;4.438;2023-05-18T05:12:52;6.37;;;6.03;;
19905;SDS011;10115;50.906;4.438;2023-05-18T05:15:18;5.80;;;5.40;;
19905;SDS011;10115;50.906;4.438;2023-05-18T05:17:47;6.20;;;5.83;;
19905;SDS011;10115;50.906;4.438;2023-05-18T05:20:14;7.63;;;6.20;;
19905;SDS011;10115;50.906;4.438;2023-05-18T05:22:40;7.30;;;5.90;;
19905;SDS011;10115;50.906;4.438;2023-05-18T05:25:06;6.20;;;5.90;;
19905;SDS011;10115;50.906;4.438;2023-05-18T05:27:32;8.17;;;6.50;;
19905;SDS011;10115;50.906;4.438;2023-05-18T05:29:58;6.40;;;6.00;;
19905;SDS011;10115;50.906;4.438;2023-05-18T05:32:23;6.03;;;5.63;;
19905;SDS011;10115;50.906;4.438;2023-05-18T05:34:49;5.47;;;5.07;;
19905;SDS011;10115;50.906;4.438;2023-05-18T05:37:16;9.70;;;6.33;;
19905;SDS011;10115;50.906;4.438;2023-05-18T05:39:42;5.73;;;5.43;;
19905;SDS011;10115;50.906;4.438;2023-05-18T05:42:07;6.87;;;6.27;;
19905;SDS011;10115;50.906;4.438;2023-05-18T05:44:33;9.90;;;5.03;;
19905;SDS011;10115;50.906;4.438;2023-05-18T05:47:00;9.70;;;5.87;;
19905;SDS011;10115;50.906;4.438;2023-05-18T05:49:26;7.07;;;6.40;;
19905;SDS011;10115;50.906;4.438;2023-05-18T05:51:51;5.50;;;5.27;;
19905;SDS011;10115;50.906;4.438;2023-05-18T05:54:17;6.23;;;5.73;;
19905;SDS011;10115;50.906;4.438;2023-05-18T05:56:43;5.87;;;5.57;;
19905;SDS011;10115;50.906;4.438;2023-05-18T05:59:09;6.20;;;5.77;;
19905;SDS011;10115;50.906;4.438;2023-05-18T06:01:34;5.83;;;5.30;;
19905;SDS011;10115;50.906;4.438;2023-05-18T06:04:00;6.63;;;6.00;;
19905;SDS011;10115;50.906;4.438;2023-05-18T06:06:30;7.40;;;6.90;;
19905;SDS011;10115;50.906;4.438;2023-05-18T06:08:56;6.80;;;6.10;;
19905;SDS011;10115;50.906;4.438;2023-05-18T06:11:22;7.17;;;6.67;;
19905;SDS011;10115;50.906;4.438;2023-05-18T06:13:47;7.73;;;6.93;;
19905;SDS011;10115;50.906;4.438;2023-05-18T06:16:13;6.97;;;6.30;;
19905;SDS011;10115;50.906;4.438;2023-05-18T06:18:39;9.47;;;6.87;;
19905;SDS011;10115;50.906;4.438;2023-05-18T06:21:05;7.23;;;6.80;;
19905;SDS011;10115;50.906;4.438;2023-05-18T06:23:30;7.43;;;6.83;;
19905;SDS011;10115;50.906;4.438;2023-05-18T06:25:56;6.73;;;6.00;;
19905;SDS011;10115;50.906;4.438;2023-05-18T06:28:22;6.17;;;5.77;;
19905;SDS011;10115;50.906;4.438;2023-05-18T06:30:47;7.03;;;6.13;;
19905;SDS011;10115;50.906;4.438;2023-05-18T06:33:13;6.57;;;6.13;;
19905;SDS011;10115;50.906;4.438;2023-05-18T06:35:39;6.60;;;6.00;;
19905;SDS011;10115;50.906;4.438;2023-05-18T06:38:05;7.27;;;6.67;;
19905;SDS011;10115;50.906;4.438;2023-05-18T06:40:30;6.20;;;5.60;;
19905;SDS011;10115;50.906;4.438;2023-05-18T06:42:57;7.40;;;6.30;;
19905;SDS011;10115;50.906;4.438;2023-05-18T06:45:22;6.47;;;6.00;;
19905;SDS011;10115;50.906;4.438;2023-05-18T06:47:48;7.23;;;6.73;;
19905;SDS011;10115;50.906;4.438;2023-05-18T06:50:14;6.80;;;6.30;;
19905;SDS011;10115;50.906;4.438;2023-05-18T06:52:39;11.50;;;6.10;;
19905;SDS011;10115;50.906;4.438;2023-05-18T06:55:05;6.50;;;5.97;;
19905;SDS011;10115;50.906;4.438;2023-05-18T06:57:31;7.47;;;6.17;;
19905;SDS011;10115;50.906;4.438;2023-05-18T06:59:57;6.03;;;5.67;;
19905;SDS011;10115;50.906;4.438;2023-05-18T07:02:23;7.10;;;6.53;;
19905;SDS011;10115;50.906;4.438;2023-05-18T07:04:49;6.10;;;5.70;;
19905;SDS011;10115;50.906;4.438;2023-05-18T07:07:15;6.63;;;6.17;;
19905;SDS011;10115;50.906;4.438;2023-05-18T07:09:41;6.20;;;5.70;;
19905;SDS011;10115;50.906;4.438;2023-05-18T07:12:09;7.03;;;6.53;;
19905;SDS011;10115;50.906;4.438;2023-05-18T07:14:35;6.63;;;6.03;;
19905;SDS011;10115;50.906;4.438;2023-05-18T07:17:01;7.63;;;6.70;;
19905;SDS011;10115;50.906;4.438;2023-05-18T07:19:28;8.80;;;6.50;;
19905;SDS011;10115;50.906;4.438;2023-05-18T07:21:53;7.53;;;6.83;;
19905;SDS011;10115;50.906;4.438;2023-05-18T07:24:20;6.27;;;5.87;;
19905;SDS011;10115;50.906;4.438;2023-05-18T07:26:46;7.53;;;6.10;;
19905;SDS011;10115;50.906;4.438;2023-05-18T07:29:12;7.07;;;6.47;;
19905;SDS011;10115;50.906;4.438;2023-05-18T07:31:38;6.63;;;5.43;;
19905;SDS011;10115;50.906;4.438;2023-05-18T07:34:05;6.33;;;5.83;;
19905;SDS011;10115;50.906;4.438;2023-05-18T07:36:31;15.20;;;6.47;;
19905;SDS011;10115;50.906;4.438;2023-05-18T07:38:57;7.17;;;6.47;;
19905;SDS011;10115;50.906;4.438;2023-05-18T07:41:24;6.93;;;5.80;;
19905;SDS011;10115;50.906;4.438;2023-05-18T07:43:52;12.30;;;6.87;;
19905;SDS011;10115;50.906;4.438;2023-05-18T07:46:18;7.50;;;6.20;;
19905;SDS011;10115;50.906;4.438;2023-05-18T07:48:44;8.40;;;7.30;;
19905;SDS011;10115;50.906;4.438;2023-05-18T07:51:10;7.20;;;6.70;;
19905;SDS011;10115;50.906;4.438;2023-05-18T07:53:36;6.93;;;6.40;;
19905;SDS011;10115;50.906;4.438;2023-05-18T07:56:04;10.60;;;6.17;;
19905;SDS011;10115;50.906;4.438;2023-05-18T07:58:32;6.13;;;5.73;;
19905;SDS011;10115;50.906;4.438;2023-05-18T08:00:59;7.30;;;6.60;;
19905;SDS011;10115;50.906;4.438;2023-05-18T08:03:25;10.37;;;6.80;;
19905;SDS011;10115;50.906;4.438;2023-05-18T08:05:51;6.63;;;6.23;;
19905;SDS011;10115;50.906;4.438;2023-05-18T08:08:17;5.80;;;5.40;;
19905;SDS011;10115;50.906;4.438;2023-05-18T08:10:42;6.90;;;6.23;;
19905;SDS011;10115;50.906;4.438;2023-05-18T08:13:08;8.53;;;7.73;;
19905;SDS011;10115;50.906;4.438;2023-05-18T08:15:34;9.80;;;7.80;;
19905;SDS011;10115;50.906;4.438;2023-05-18T08:18:01;10.67;;;6.80;;
19905;SDS011;10115;50.906;4.438;2023-05-18T08:20:26;7.60;;;6.80;;
19905;SDS011;10115;50.906;4.438;2023-05-18T08:22:55;7.03;;;6.43;;
19905;SDS011;10115;50.906;4.438;2023-05-18T08:25:21;7.23;;;6.63;;
19905;SDS011;10115;50.906;4.438;2023-05-18T08:27:47;7.47;;;6.77;;
19905;SDS011;10115;50.906;4.438;2023-05-18T08:30:13;7.67;;;6.13;;
19905;SDS011;10115;50.906;4.438;2023-05-18T08:32:39;6.80;;;6.20;;
19905;SDS011;10115;50.906;4.438;2023-05-18T08:35:05;7.27;;;6.57;;
19905;SDS011;10115;50.906;4.438;2023-05-18T08:37:32;9.33;;;7.07;;
19905;SDS011;10115;50.906;4.438;2023-05-18T08:39:58;7.00;;;6.30;;
19905;SDS011;10115;50.906;4.438;2023-05-18T08:42:28;6.53;;;6.03;;
19905;SDS011;10115;50.906;4.438;2023-05-18T08:45:12;8.10;;;6.50;;
19905;SDS011;10115;50.906;4.438;2023-05-18T08:47:55;6.30;;;5.80;;
19905;SDS011;10115;50.906;4.438;2023-05-18T08:50:21;7.23;;;6.53;;
19905;SDS011;10115;50.906;4.438;2023-05-18T08:52:50;9.30;;;6.13;;
19905;SDS011;10115;50.906;4.438;2023-05-18T08:55:19;9.07;;;6.70;;
19905;SDS011;10115;50.906;4.438;2023-05-18T08:57:49;10.30;;;5.70;;
19905;SDS011;10115;50.906;4.438;2023-05-18T09:00:23;6.90;;;6.30;;
19905;SDS011;10115;50.906;4.438;2023-05-18T09:02:49;7.60;;;6.60;;
19905;SDS011;10115;50.906;4.438;2023-05-18T09:05:16;10.73;;;6.30;;
19905;SDS011;10115;50.906;4.438;2023-05-18T09:07:43;6.27;;;5.77;;
19905;SDS011;10115;50.906;4.438;2023-05-18T09:10:09;9.03;;;6.57;;
19905;SDS011;10115;50.906;4.438;2023-05-18T09:12:36;19.73;;;7.20;;
19905;SDS011;10115;50.906;4.438;2023-05-18T09:15:03;9.20;;;7.23;;
19905;SDS011;10115;50.906;4.438;2023-05-18T09:17:30;5.97;;;5.50;;
19905;SDS011;10115;50.906;4.438;2023-05-18T09:19:56;5.90;;;5.40;;
19905;SDS011;10115;50.906;4.438;2023-05-18T09:22:21;8.83;;;7.00;;
19905;SDS011;10115;50.906;4.438;2023-05-18T09:24:47;11.37;;;5.83;;
19905;SDS011;10115;50.906;4.438;2023-05-18T09:27:13;10.23;;;7.03;;
19905;SDS011;10115;50.906;4.438;2023-05-18T09:29:51;7.17;;;6.47;;
19905;SDS011;10115;50.906;4.438;2023-05-18T09:32:18;9.00;;;5.87;;
19905;SDS011;10115;50.906;4.438;2023-05-18T09:34:45;6.37;;;5.77;;
19905;SDS011;10115;50.906;4.438;2023-05-18T09:37:16;9.43;;;6.17;;
19905;SDS011;10115;50.906;4.438;2023-05-18T09:39:43;6.27;;;5.83;;
19905;SDS011;10115;50.906;4.438;2023-05-18T09:42:09;9.60;;;6.67;;
19905;SDS011;10115;50.906;4.438;2023-05-18T09:44:36;6.53;;;5.37;;
19905;SDS011;10115;50.906;4.438;2023-05-18T09:47:03;5.73;;;4.60;;
19905;SDS011;10115;50.906;4.438;2023-05-18T09:49:33;7.43;;;5.67;;
19905;SDS011;10115;50.906;4.438;2023-05-18T09:51:59;5.50;;;5.20;;
19905;SDS011;10115;50.906;4.438;2023-05-18T09:54:25;11.60;;;5.43;;
19905;SDS011;10115;50.906;4.438;2023-05-18T09:56:51;5.77;;;5.37;;
19905;SDS011;10115;50.906;4.438;2023-05-18T09:59:17;5.57;;;5.07;;
19905;SDS011;10115;50.906;4.438;2023-05-18T10:01:55;5.87;;;5.30;;
19905;SDS011;10115;50.906;4.438;2023-05-18T10:04:33;9.40;;;4.93;;
19905;SDS011;10115;50.906;4.438;2023-05-18T10:07:10;5.20;;;4.77;;
19905;SDS011;10115;50.906;4.438;2023-05-18T10:09:40;12.93;;;6.30;;
19905;SDS011;10115;50.906;4.438;2023-05-18T10:12:10;5.67;;;5.17;;
19905;SDS011;10115;50.906;4.438;2023-05-18T10:14:36;8.73;;;5.60;;
19905;SDS011;10115;50.906;4.438;2023-05-18T10:17:03;6.47;;;5.03;;
19905;SDS011;10115;50.906;4.438;2023-05-18T10:19:29;6.60;;;4.77;;
19905;SDS011;10115;50.906;4.438;2023-05-18T10:21:58;5.70;;;5.20;;
19905;SDS011;10115;50.906;4.438;2023-05-18T10:24:31;7.00;;;4.83;;
19905;SDS011;10115;50.906;4.438;2023-05-18T10:27:00;7.30;;;4.70;;
19905;SDS011;10115;50.906;4.438;2023-05-18T10:29:33;5.87;;;5.30;;
19905;SDS011;10115;50.906;4.438;2023-05-18T10:32:00;6.37;;;4.77;;
19905;SDS011;10115;50.906;4.438;2023-05-18T10:34:31;5.30;;;4.90;;
19905;SDS011;10115;50.906;4.438;2023-05-18T10:36:58;4.90;;;4.50;;
19905;SDS011;10115;50.906;4.438;2023-05-18T10:39:28;5.50;;;5.13;;
19905;SDS011;10115;50.906;4.438;2023-05-18T10:41:55;6.67;;;4.90;;
19905;SDS011;10115;50.906;4.438;2023-05-18T10:44:23;5.23;;;4.80;;
19905;SDS011;10115;50.906;4.438;2023-05-18T10:46:49;5.47;;;4.97;;
19905;SDS011;10115;50.906;4.438;2023-05-18T10:49:16;5.23;;;4.83;;
19905;SDS011;10115;50.906;4.438;2023-05-18T10:51:43;10.47;;;5.70;;
19905;SDS011;10115;50.906;4.438;2023-05-18T10:54:11;5.67;;;5.03;;
19905;SDS011;10115;50.906;4.438;2023-05-18T10:56:45;5.43;;;4.97;;
19905;SDS011;10115;50.906;4.438;2023-05-18T10:59:15;5.77;;;5.27;;
19905;SDS011;10115;50.906;4.438;2023-05-18T11:01:42;7.53;;;4.43;;
19905;SDS011;10115;50.906;4.438;2023-05-18T11:04:10;7.57;;;5.30;;
19905;SDS011;10115;50.906;4.438;2023-05-18T11:06:36;6.20;;;5.70;;
19905;SDS011;10115;50.906;4.438;2023-05-18T11:09:02;9.73;;;5.63;;
19905;SDS011;10115;50.906;4.438;2023-05-18T11:11:27;5.93;;;5.47;;
19905;SDS011;10115;50.906;4.438;2023-05-18T11:13:58;5.83;;;5.30;;
19905;SDS011;10115;50.906;4.438;2023-05-18T11:16:33;5.37;;;4.97;;
19905;SDS011;10115;50.906;4.438;2023-05-18T11:19:06;5.97;;;5.47;;
19905;SDS011;10115;50.906;4.438;2023-05-18T11:24:16;8.20;;;5.27;;
19905;SDS011;10115;50.906;4.438;2023-05-18T11:26:56;6.20;;;5.60;;
19905;SDS011;10115;50.906;4.438;2023-05-18T11:29:32;10.27;;;5.93;;
19905;SDS011;10115;50.906;4.438;2023-05-18T11:32:00;10.57;;;5.23;;
19905;SDS011;10115;50.906;4.438;2023-05-18T11:34:36;4.90;;;4.50;;
19905;SDS011;10115;50.906;4.438;2023-05-18T11:37:09;5.43;;;4.90;;
19905;SDS011;10115;50.906;4.438;2023-05-18T11:39:36;4.73;;;4.43;;
19905;SDS011;10115;50.906;4.438;2023-05-18T11:42:06;6.23;;;4.67;;
19905;SDS011;10115;50.906;4.438;2023-05-18T11:44:35;5.97;;;4.80;;
19905;SDS011;10115;50.906;4.438;2023-05-18T11:47:04;6.20;;;5.00;;
19905;SDS011;10115;50.906;4.438;2023-05-18T11:52:22;5.90;;;5.30;;
19905;SDS011;10115;50.906;4.438;2023-05-18T11:54:49;9.90;;;5.30;;
19905;SDS011;10115;50.906;4.438;2023-05-18T12:00:04;5.30;;;4.77;;
19905;SDS011;10115;50.906;4.438;2023-05-18T12:02:32;7.00;;;4.70;;
19905;SDS011;10115;50.906;4.438;2023-05-18T12:04:59;9.53;;;5.73;;
19905;SDS011;10115;50.906;4.438;2023-05-18T12:07:26;9.47;;;5.93;;
19905;SDS011;10115;50.906;4.438;2023-05-18T12:10:00;6.30;;;5.43;;
19905;SDS011;10115;50.906;4.438;2023-05-18T12:12:28;5.77;;;5.33;;
19905;SDS011;10115;50.906;4.438;2023-05-18T12:14:58;5.80;;;5.30;;
19905;SDS011;10115;50.906;4.438;2023-05-18T12:17:38;5.53;;;5.00;;
19905;SDS011;10115;50.906;4.438;2023-05-18T12:20:08;6.77;;;4.77;;
19905;SDS011;10115;50.906;4.438;2023-05-18T12:22:39;5.50;;;5.10;;
19905;SDS011;10115;50.906;4.438;2023-05-18T12:25:06;6.60;;;5.37;;
19905;SDS011;10115;50.906;4.438;2023-05-18T12:27:38;5.67;;;5.27;;
19905;SDS011;10115;50.906;4.438;2023-05-18T12:30:07;7.60;;;6.83;;
19905;SDS011;10115;50.906;4.438;2023-05-18T12:32:38;6.00;;;5.40;;
19905;SDS011;10115;50.906;4.438;2023-05-18T12:35:08;5.97;;;5.47;;
19905;SDS011;10115;50.906;4.438;2023-05-18T12:37:40;7.93;;;5.30;;
19905;SDS011;10115;50.906;4.438;2023-05-18T12:40:09;5.63;;;5.17;;
19905;SDS011;10115;50.906;4.438;2023-05-18T12:42:49;11.87;;;5.73;;
19905;SDS011;10115;50.906;4.438;2023-05-18T12:45:25;5.27;;;4.87;;
19905;SDS011;10115;50.906;4.438;2023-05-18T12:47:55;5.20;;;4.80;;
19905;SDS011;10115;50.906;4.438;2023-05-18T12:50:31;6.87;;;5.60;;
19905;SDS011;10115;50.906;4.438;2023-05-18T12:52:58;4.77;;;4.47;;
19905;SDS011;10115;50.906;4.438;2023-05-18T12:55:25;5.43;;;5.00;;
19905;SDS011;10115;50.906;4.438;2023-05-18T12:57:58;7.10;;;5.40;;
19905;SDS011;10115;50.906;4.438;2023-05-18T13:00:30;5.93;;;5.33;;
19905;SDS011;10115;50.906;4.438;2023-05-18T13:03:07;5.97;;;5.33;;
19905;SDS011;10115;50.906;4.438;2023-05-18T13:05:35;6.70;;;5.23;;
19905;SDS011;10115;50.906;4.438;2023-05-18T13:08:01;6.37;;;5.07;;
19905;SDS011;10115;50.906;4.438;2023-05-18T13:10:30;5.93;;;5.13;;
19905;SDS011;10115;50.906;4.438;2023-05-18T13:12:56;5.93;;;4.90;;
19905;SDS011;10115;50.906;4.438;2023-05-18T13:15:27;5.10;;;4.70;;
19905;SDS011;10115;50.906;4.438;2023-05-18T13:18:01;5.57;;;4.73;;
19905;SDS011;10115;50.906;4.438;2023-05-18T13:20:43;5.10;;;4.47;;
19905;SDS011;10115;50.906;4.438;2023-05-18T13:23:15;4.80;;;4.40;;
19905;SDS011;10115;50.906;4.438;2023-05-18T13:25:42;6.23;;;5.70;;
19905;SDS011;10115;50.906;4.438;2023-05-18T13:28:10;6.50;;;4.73;;
19905;SDS011;10115;50.906;4.438;2023-05-18T13:30:37;5.80;;;4.63;;
19905;SDS011;10115;50.906;4.438;2023-05-18T13:33:05;4.70;;;4.30;;
19905;SDS011;10115;50.906;4.438;2023-05-18T13:35:37;6.93;;;4.47;;
19905;SDS011;10115;50.906;4.438;2023-05-18T13:38:06;8.37;;;4.27;;
19905;SDS011;10115;50.906;4.438;2023-05-18T13:40:32;6.53;;;4.70;;
19905;SDS011;10115;50.906;4.438;2023-05-18T13:42:58;5.30;;;4.80;;
19905;SDS011;10115;50.906;4.438;2023-05-18T13:45:24;4.77;;;4.37;;
19905;SDS011;10115;50.906;4.438;2023-05-18T13:47:49;8.03;;;4.20;;
19905;SDS011;10115;50.906;4.438;2023-05-18T13:50:17;5.50;;;5.03;;
19905;SDS011;10115;50.906;4.438;2023-05-18T13:52:43;4.50;;;4.10;;
19905;SDS011;10115;50.906;4.438;2023-05-18T13:55:10;6.23;;;4.23;;
19905;SDS011;10115;50.906;4.438;2023-05-18T13:57:36;4.63;;;4.23;;
19905;SDS011;10115;50.906;4.438;2023-05-18T14:00:02;4.63;;;4.23;;
19905;SDS011;10115;50.906;4.438;2023-05-18T14:02:37;4.13;;;3.77;;
19905;SDS011;10115;50.906;4.438;2023-05-18T14:05:06;6.10;;;4.97;;
19905;SDS011;10115;50.906;4.438;2023-05-18T14:07:35;7.37;;;4.43;;
19905;SDS011;10115;50.906;4.438;2023-05-18T14:10:02;5.23;;;4.73;;
19905;SDS011;10115;50.906;4.438;2023-05-18T14:12:28;7.80;;;5.00;;
19905;SDS011;10115;50.906;4.438;2023-05-18T14:14:54;9.23;;;4.57;;
19905;SDS011;10115;50.906;4.438;2023-05-18T14:17:20;5.27;;;4.77;;
19905;SDS011;10115;50.906;4.438;2023-05-18T14:19:46;5.83;;;4.17;;
19905;SDS011;10115;50.906;4.438;2023-05-18T14:22:11;4.87;;;4.40;;
19905;SDS011;10115;50.906;4.438;2023-05-18T14:24:37;6.13;;;4.63;;
19905;SDS011;10115;50.906;4.438;2023-05-18T14:27:03;6.07;;;5.03;;
19905;SDS011;10115;50.906;4.438;2023-05-18T14:29:29;4.47;;;3.87;;
19905;SDS011;10115;50.906;4.438;2023-05-18T14:31:54;4.70;;;4.30;;
19905;SDS011;10115;50.906;4.438;2023-05-18T14:34:20;5.10;;;4.53;;
19905;SDS011;10115;50.906;4.438;2023-05-18T14:36:46;6.77;;;4.60;;
19905;SDS011;10115;50.906;4.438;2023-05-18T14:39:11;5.80;;;4.30;;
19905;SDS011;10115;50.906;4.438;2023-05-18T14:41:37;4.80;;;4.30;;
19905;SDS011;10115;50.906;4.438;2023-05-18T14:44:03;6.28;;;4.68;;
19905;SDS011;10115;50.906;4.438;2023-05-18T14:46:32;6.60;;;4.82;;
19905;SDS011;10115;50.906;4.438;2023-05-18T14:48:58;6.50;;;4.60;;
19905;SDS011;10115;50.906;4.438;2023-05-18T14:51:24;6.73;;;4.30;;
19905;SDS011;10115;50.906;4.438;2023-05-18T14:53:50;7.97;;;4.93;;
19905;SDS011;10115;50.906;4.438;2023-05-18T14:56:15;5.13;;;4.13;;
19905;SDS011;10115;50.906;4.438;2023-05-18T14:58:41;5.53;;;4.80;;
19905;SDS011;10115;50.906;4.438;2023-05-18T15:01:07;11.67;;;4.90;;
19905;SDS011;10115;50.906;4.438;2023-05-18T15:03:32;5.77;;;4.70;;
19905;SDS011;10115;50.906;4.438;2023-05-18T15:05:58;7.67;;;4.53;;